メインページ
METAR-TAF:

METAR-TAF

空港 :

バーレーン国際空港

バーレーン, バーレーン

緯度: 26-16N, 経度: 050-39E, 海抜: 2m

現時点の気象観測

当レポートは13分前の23:00(UTC)に作成
西の風 9kt
気温 37°C
湿度 25%
気圧 995 hPa
視程10km以上
1,500メートル以下は雲なし、積乱雲なし

METAR: OBBI 172300Z 26009KT CAVOK 37/14 Q0995 NOSIG

時間: 02:13 (23:13 UTC)

予報

当レポートは6時間13分前の17:00(UTC)に作成
予報は17日の 18時(UTC)から 19日の 00時(UTC)まで有効
北西の風 10kt
視程10km以上
1,500メートル以下は雲なし、積乱雲なし
17日の 22時(UTC)から 18日の 06時(UTC)まで一時的に
視程: 5000m
広範な塵
確率 30% :
18日の 00時(UTC)から 18日の 05時(UTC)まで一時的に
視程: 3000m
18日の 04時(UTC)から 18日の 06時(UTC)まで徐々に
北/北西の風 15kt、最大25ktの突風を伴う
18日の 18時(UTC)から 18日の 20時(UTC)まで徐々に
変向風 5kt

TAF: OBBI 171700Z 1718/1900 32010KT CAVOK TEMPO 1722/1806 5000 DU NSC PROB30 TEMPO 1800/1805 3000 BECMG 1804/1806 34015G25KT BECMG 1818/1820 VRB05KT

4,000以上の空港の気象観測と天気予報(METAR報とTAF報)

利用可能な観測所は地図上に黄色い丸と赤い丸で示す。

丸の上にカーソルを重ねると観測所名を参照できる。

次にクリックすると気象観測と天気予報を参照できる。

マップの切り替え:黒色「×」印の緑ボタンをクリックして拡大、「-」印の緑ボタンをクリックして縮小、緑色の三角印をクリックして隣りの地図に切り替え


METAR-TAF: